Time;durP1;ratioP1;P1;durP2;ratioP2;P2;SDS_P1;SDS_P2;PMS_P1;PMS_P2;Temp;Humidity;BMP_temperature;BMP_pressure;BME280_temperature;BME280_humidity;BME280_pressure;Samples;Min_cycle;Max_cycle;Signal;HPM_P1;HPM_P2
2023/07/11 00:01:32;;;;;;;5.00;2.70;;;17.20;59.40;;;;;;4967820;28;20204;-62
2023/07/11 00:04:00;;;;;;;6.63;2.80;;;17.20;67.50;;;;;;4965076;28;20243;-63
2023/07/11 00:06:29;;;;;;;7.30;2.77;;;17.10;69.80;;;;;;4962566;28;20207;-63
2023/07/11 00:08:59;;;;;;;4.57;2.87;;;17.10;72.30;;;;;;4964668;28;20600;-63
2023/07/11 00:11:27;;;;;;;9.57;3.40;;;17.10;71.50;;;;;;4958391;28;20678;-63
2023/07/11 00:13:59;;;;;;;5.37;3.03;;;17.10;71.50;;;;;;4966734;28;20265;-63
2023/07/11 00:16:28;;;;;;;3.10;2.90;;;17.00;77.90;;;;;;4971262;28;20196;-63
2023/07/11 00:18:56;;;;;;;5.43;2.80;;;17.00;75.60;;;;;;4967053;28;20286;-63
2023/07/11 00:21:24;;;;;;;4.90;3.00;;;17.00;65.80;;;;;;4968863;28;20202;-62
2023/07/11 00:23:52;;;;;;;7.17;2.60;;;16.90;76.00;;;;;;4953176;28;20246;-63
2023/07/11 00:26:22;;;;;;;6.63;3.00;;;16.90;85.60;;;;;;4956857;28;20205;-62
2023/07/11 00:28:50;;;;;;;7.67;2.70;;;16.90;84.70;;;;;;4954879;28;20203;-63
2023/07/11 00:31:20;;;;;;;14.70;3.13;;;16.90;88.30;;;;;;4953204;28;20224;-63
2023/07/11 00:33:48;;;;;;;4.17;2.43;;;16.90;86.40;;;;;;4962263;28;20247;-63
2023/07/11 00:36:16;;;;;;;4.17;2.57;;;16.80;86.50;;;;;;4966905;28;20187;-63
2023/07/11 00:38:45;;;;;;;3.23;2.50;;;16.80;86.60;;;;;;4959214;28;20567;-63
2023/07/11 00:41:13;;;;;;;6.07;2.73;;;16.80;90.00;;;;;;4945101;28;20213;-63
2023/07/11 00:43:43;;;;;;;4.10;2.60;;;16.70;89.90;;;;;;4961266;28;20199;-64
2023/07/11 00:46:13;;;;;;;3.23;2.70;;;16.70;86.30;;;;;;4963636;28;20218;-63
2023/07/11 00:48:46;;;;;;;2.77;2.57;;;16.60;91.90;;;;;;4941133;28;20253;-63
2023/07/11 00:51:21;;;;;;;3.37;2.57;;;16.60;94.50;;;;;;4955387;28;20305;-64
2023/07/11 00:53:50;;;;;;;6.73;2.90;;;16.60;94.30;;;;;;4967415;28;20247;-63
2023/07/11 00:56:22;;;;;;;4.20;2.90;;;16.50;92.70;;;;;;4960403;28;20199;-63
2023/07/11 00:58:53;;;;;;;5.60;2.87;;;16.50;95.60;;;;;;4963435;28;20286;-63
2023/07/11 01:01:23;;;;;;;7.20;2.93;;;16.50;99.10;;;;;;4954704;28;20204;-63
2023/07/11 01:03:53;;;;;;;9.07;3.00;;;16.50;96.10;;;;;;4963478;28;20230;-64
2023/07/11 01:06:25;;;;;;;4.07;2.90;;;16.40;96.40;;;;;;4961389;28;20193;-64
2023/07/11 01:08:55;;;;;;;6.47;3.43;;;16.40;99.80;;;;;;4937539;28;20218;-63
2023/07/11 01:11:25;;;;;;;6.27;3.13;;;16.40;99.90;;;;;;4962727;28;20219;-63
2023/07/11 01:13:56;;;;;;;9.70;3.23;;;16.40;99.90;;;;;;4957105;28;20283;-63
2023/07/11 01:16:24;;;;;;;5.23;3.27;;;16.40;99.90;;;;;;4956788;28;20237;-63
2023/07/11 01:18:53;;;;;;;5.23;3.50;;;16.30;99.90;;;;;;4964407;28;20229;-63
2023/07/11 01:21:24;;;;;;;4.63;2.80;;;16.30;99.90;;;;;;4965251;28;20191;-63
2023/07/11 01:23:52;;;;;;;3.43;3.07;;;16.30;99.90;;;;;;4971158;28;20214;-63
2023/07/11 01:26:20;;;;;;;5.17;3.17;;;16.20;99.90;;;;;;4953786;28;20196;-64
2023/07/11 01:28:48;;;;;;;7.07;3.60;;;16.20;99.90;;;;;;4962438;28;20199;-63
2023/07/11 01:31:18;;;;;;;8.63;3.27;;;16.20;99.90;;;;;;4966028;28;20210;-63
2023/07/11 01:33:46;;;;;;;4.77;3.13;;;16.10;99.90;;;;;;4963188;28;20241;-63
2023/07/11 01:36:15;;;;;;;8.53;3.33;;;16.10;99.90;;;;;;4959863;28;20534;-63
2023/07/11 01:38:44;;;;;;;8.90;4.13;;;16.10;99.90;;;;;;4958145;28;20199;-63
2023/07/11 01:41:13;;;;;;;5.20;3.60;;;16.00;99.90;;;;;;4961967;28;20221;-63
2023/07/11 01:43:41;;;;;;;5.90;3.47;;;16.00;99.90;;;;;;4958302;28;20196;-63
2023/07/11 01:46:09;;;;;;;4.20;3.80;;;16.00;99.90;;;;;;4956295;28;20221;-64
2023/07/11 01:48:38;;;;;;;6.17;3.90;;;15.90;99.90;;;;;;4962544;28;20894;-63
2023/07/11 01:51:06;;;;;;;5.03;3.50;;;15.90;99.90;;;;;;4972261;28;20196;-65
2023/07/11 01:53:35;;;;;;;3.83;3.53;;;15.90;99.90;;;;;;4964739;28;20250;-64
2023/07/11 01:56:05;;;;;;;5.33;3.63;;;15.80;99.90;;;;;;4964648;28;20191;-64
2023/07/11 01:58:34;;;;;;;5.67;3.43;;;15.80;99.90;;;;;;4959541;28;20245;-64
2023/07/11 02:01:02;;;;;;;5.00;3.33;;;15.80;99.90;;;;;;4961901;28;20550;-64
2023/07/11 02:03:31;;;;;;;5.37;3.73;;;15.70;99.90;;;;;;4961188;28;20194;-64
2023/07/11 02:05:59;;;;;;;6.73;3.97;;;15.70;99.90;;;;;;4959232;28;20217;-64
2023/07/11 02:08:27;;;;;;;6.23;4.03;;;15.70;99.90;;;;;;4964395;28;20572;-64
2023/07/11 02:10:56;;;;;;;7.50;3.93;;;15.60;99.90;;;;;;4962658;28;20222;-64
2023/07/11 02:13:26;;;;;;;8.00;4.17;;;15.60;99.90;;;;;;4949983;28;20207;-64
2023/07/11 02:15:54;;;;;;;9.83;4.20;;;15.60;99.90;;;;;;4961793;28;20205;-64
2023/07/11 02:18:22;;;;;;;4.37;3.90;;;15.50;99.90;;;;;;4971886;28;20197;-64
2023/07/11 02:20:51;;;;;;;8.37;4.10;;;15.50;99.90;;;;;;4957435;28;20552;-64
2023/07/11 02:23:19;;;;;;;4.37;4.00;;;15.50;99.90;;;;;;4969827;28;20204;-64
2023/07/11 02:25:47;;;;;;;5.27;4.00;;;15.40;99.90;;;;;;4956890;28;20228;-64
2023/07/11 02:28:15;;;;;;;8.97;4.77;;;15.50;99.90;;;;;;4960537;28;20190;-64
2023/07/11 02:30:45;;;;;;;6.90;4.47;;;15.50;99.90;;;;;;4961802;28;20189;-64
2023/07/11 02:33:13;;;;;;;7.33;4.20;;;15.50;99.90;;;;;;4967494;28;20204;-64
2023/07/11 02:35:41;;;;;;;9.03;4.40;;;15.50;99.90;;;;;;4963893;28;20262;-64
2023/07/11 02:38:10;;;;;;;9.63;4.23;;;15.50;99.90;;;;;;4958678;28;20203;-64
2023/07/11 02:40:38;;;;;;;9.63;4.47;;;15.40;99.90;;;;;;4973904;28;20621;-64
2023/07/11 02:43:06;;;;;;;6.57;4.20;;;15.40;99.90;;;;;;4972190;28;20193;-65
2023/07/11 02:45:34;;;;;;;9.20;4.33;;;15.40;99.90;;;;;;4972780;28;20219;-64
2023/07/11 02:48:05;;;;;;;5.87;4.20;;;15.40;99.90;;;;;;4967251;28;20283;-64
2023/07/11 02:50:33;;;;;;;6.70;4.23;;;15.40;99.90;;;;;;4973299;28;20194;-64
2023/07/11 02:53:01;;;;;;;9.07;4.37;;;15.40;99.90;;;;;;4965608;28;20194;-64
2023/07/11 02:55:30;;;;;;;4.33;3.53;;;15.40;99.90;;;;;;4962505;28;20239;-63
2023/07/11 02:57:58;;;;;;;5.13;3.73;;;15.30;99.90;;;;;;4967462;28;20198;-64
2023/07/11 03:00:26;;;;;;;6.60;4.43;;;15.30;99.90;;;;;;4954879;28;21034;-64
2023/07/11 03:02:55;;;;;;;6.77;4.00;;;15.30;99.90;;;;;;4964861;28;20199;-63
2023/07/11 03:05:24;;;;;;;6.17;4.40;;;15.50;99.90;;;;;;4965760;28;20662;-64
2023/07/11 03:07:53;;;;;;;5.93;4.30;;;15.50;99.90;;;;;;4972785;28;20198;-63
2023/07/11 03:10:21;;;;;;;7.10;4.70;;;15.50;99.90;;;;;;4962988;28;20198;-64
2023/07/11 03:12:49;;;;;;;11.03;5.00;;;15.50;99.90;;;;;;4969899;28;20196;-64
2023/07/11 03:15:18;;;;;;;10.10;5.03;;;15.60;99.90;;;;;;4968844;28;20197;-64
2023/07/11 03:17:46;;;;;;;10.20;4.77;;;15.60;99.90;;;;;;4967114;28;20625;-64
2023/07/11 03:20:14;;;;;;;9.63;5.03;;;15.60;99.90;;;;;;4962243;28;20594;-63
2023/07/11 03:22:44;;;;;;;12.43;5.27;;;15.70;99.90;;;;;;4961705;28;20650;-64
2023/07/11 03:25:12;;;;;;;6.80;4.60;;;15.70;99.90;;;;;;4957046;28;20196;-64
2023/07/11 03:27:40;;;;;;;6.60;4.50;;;15.70;99.90;;;;;;4960169;28;20192;-64
2023/07/11 03:30:09;;;;;;;10.27;5.30;;;15.70;99.90;;;;;;4965584;28;20395;-64
2023/07/11 03:32:37;;;;;;;6.20;4.90;;;15.70;99.90;;;;;;4969649;28;20202;-64
2023/07/11 03:35:09;;;;;;;9.27;5.70;;;15.70;99.90;;;;;;4961700;28;20193;-64
2023/07/11 03:37:37;;;;;;;8.23;4.67;;;15.80;99.90;;;;;;4971738;28;20203;-64
2023/07/11 03:40:08;;;;;;;8.83;5.03;;;15.80;99.90;;;;;;4963381;28;20626;-65
2023/07/11 03:42:36;;;;;;;12.70;5.40;;;15.90;99.90;;;;;;4955689;28;20197;-64
2023/07/11 03:45:08;;;;;;;7.27;5.00;;;16.00;99.90;;;;;;4962743;28;20188;-64
2023/07/11 03:47:37;;;;;;;9.80;5.10;;;16.00;99.90;;;;;;4965814;28;20246;-64
2023/07/11 03:50:07;;;;;;;9.87;5.13;;;15.90;99.90;;;;;;4966093;28;20226;-64
2023/07/11 03:52:35;;;;;;;14.37;5.70;;;15.90;99.90;;;;;;4959898;28;20198;-64
2023/07/11 03:55:04;;;;;;;10.07;5.67;;;15.90;99.90;;;;;;4961990;28;20697;-64
2023/07/11 03:57:34;;;;;;;14.40;6.03;;;15.90;99.90;;;;;;4966473;28;20201;-64
2023/07/11 04:00:03;;;;;;;8.20;5.43;;;15.90;99.90;;;;;;4955949;28;20198;-64
2023/07/11 04:02:31;;;;;;;12.17;5.40;;;15.90;99.90;;;;;;4968497;28;20197;-63
2023/07/11 04:05:00;;;;;;;14.97;5.50;;;15.90;99.90;;;;;;4964668;28;20650;-63
2023/07/11 04:07:28;;;;;;;13.40;5.47;;;16.00;99.90;;;;;;4966824;28;20221;-63
2023/07/11 04:09:56;;;;;;;9.13;5.17;;;16.00;99.90;;;;;;4965597;28;20204;-63
2023/07/11 04:12:27;;;;;;;10.50;5.23;;;16.10;99.90;;;;;;4958911;28;20225;-63
2023/07/11 04:14:57;;;;;;;5.97;5.47;;;16.10;99.90;;;;;;4940798;29;20729;-63
2023/07/11 04:17:25;;;;;;;7.70;5.03;;;16.10;99.90;;;;;;4940732;28;20195;-63
2023/07/11 04:19:53;;;;;;;8.70;4.63;;;16.20;99.90;;;;;;4973065;28;20530;-63
2023/07/11 04:22:22;;;;;;;9.30;4.30;;;16.20;99.90;;;;;;4944234;29;20199;-63
2023/07/11 04:24:50;;;;;;;6.07;4.20;;;16.10;99.90;;;;;;4941655;28;20201;-63
2023/07/11 04:27:19;;;;;;;6.70;3.97;;;16.10;99.90;;;;;;4962033;28;20242;-63
2023/07/11 04:29:47;;;;;;;7.40;4.60;;;16.20;99.90;;;;;;4965329;28;20253;-63
2023/07/11 04:32:17;;;;;;;8.00;4.13;;;16.30;99.90;;;;;;4968674;28;20717;-63
2023/07/11 04:34:45;;;;;;;9.77;4.43;;;16.30;99.90;;;;;;4965081;28;20285;-63
2023/07/11 04:37:13;;;;;;;4.93;3.87;;;16.40;99.90;;;;;;4958347;28;20210;-63
2023/07/11 04:39:42;;;;;;;8.50;4.50;;;16.50;99.90;;;;;;4963375;28;20239;-63
2023/07/11 04:42:10;;;;;;;6.17;3.80;;;16.60;99.90;;;;;;4957477;28;20557;-63
2023/07/11 04:44:38;;;;;;;7.73;3.73;;;16.70;99.90;;;;;;4962373;28;20229;-63
2023/07/11 04:47:07;;;;;;;6.27;3.67;;;16.90;99.90;;;;;;4963351;28;20214;-63
2023/07/11 04:49:37;;;;;;;8.13;3.40;;;17.00;99.90;;;;;;4962824;28;20291;-63
2023/07/11 04:52:06;;;;;;;6.27;3.40;;;17.20;98.60;;;;;;4963782;28;20558;-63
2023/07/11 04:54:35;;;;;;;6.33;3.57;;;17.40;94.50;;;;;;4962807;28;20235;-63
2023/07/11 04:57:03;;;;;;;5.77;3.43;;;17.50;92.20;;;;;;4969300;28;20522;-63
2023/07/11 04:59:32;;;;;;;5.37;3.10;;;17.70;82.90;;;;;;4967848;28;20199;-64
2023/07/11 05:02:00;;;;;;;5.33;3.30;;;17.90;77.90;;;;;;4962025;28;20196;-64
2023/07/11 05:04:29;;;;;;;8.50;3.10;;;18.00;72.20;;;;;;4965262;28;20534;-63
2023/07/11 05:07:00;;;;;;;11.67;3.50;;;18.20;69.90;;;;;;4960594;28;20243;-63
2023/07/11 05:09:29;;;;;;;3.97;3.13;;;18.30;63.00;;;;;;4948288;28;20654;-63
2023/07/11 05:11:59;;;;;;;8.77;3.17;;;18.40;56.30;;;;;;4957924;28;20223;-63
2023/07/11 05:14:28;;;;;;;3.77;2.97;;;18.60;51.60;;;;;;4956757;28;20554;-63
2023/07/11 05:16:56;;;;;;;6.60;3.10;;;18.70;49.80;;;;;;4958578;28;20190;-63
2023/07/11 05:19:25;;;;;;;7.13;3.30;;;18.80;40.10;;;;;;4964733;28;20238;-63
2023/07/11 05:21:53;;;;;;;6.57;3.00;;;19.00;38.40;;;;;;4968579;28;20284;-63
2023/07/11 05:24:23;;;;;;;4.93;3.20;;;19.10;27.00;;;;;;4970898;28;20206;-63
2023/07/11 05:26:52;;;;;;;4.80;2.67;;;19.30;20.10;;;;;;4966842;28;20539;-63
2023/07/11 05:29:20;;;;;;;6.50;3.30;;;19.40;1.00;;;;;;4955352;28;20666;-63
2023/07/11 05:31:48;;;;;;;4.70;2.87;;;19.50;1.00;;;;;;4971497;28;20187;-63
2023/07/11 05:34:17;;;;;;;3.17;2.67;;;19.60;1.00;;;;;;4949972;29;20200;-63
2023/07/11 05:36:45;;;;;;;4.60;2.80;;;19.60;1.00;;;;;;4962889;28;20642;-63
2023/07/11 05:39:15;;;;;;;4.93;2.50;;;19.80;1.00;;;;;;4955258;28;20199;-63
2023/07/11 05:41:48;;;;;;;6.80;2.33;;;20.00;1.00;;;;;;4958536;28;20290;-63
2023/07/11 05:44:17;;;;;;;6.97;2.70;;;20.10;1.00;;;;;;4956510;28;20199;-63
2023/07/11 05:46:45;;;;;;;6.30;2.50;;;20.30;1.00;;;;;;4957461;28;20212;-63
2023/07/11 05:49:16;;;;;;;6.43;2.47;;;20.40;1.00;;;;;;4954340;28;20590;-63
2023/07/11 05:51:44;;;;;;;4.57;2.60;;;20.60;1.00;;;;;;4963547;28;20203;-63
2023/07/11 05:54:13;;;;;;;2.77;2.57;;;20.60;1.00;;;;;;4964429;28;20238;-63
2023/07/11 05:56:41;;;;;;;2.87;2.60;;;20.80;1.00;;;;;;4959353;28;20204;-63
2023/07/11 05:59:11;;;;;;;4.17;2.80;;;21.00;1.00;;;;;;4963197;28;20183;-63
2023/07/11 06:01:39;;;;;;;5.97;2.90;;;21.30;1.00;;;;;;4963979;28;20196;-63
2023/07/11 06:04:10;;;;;;;5.10;2.67;;;21.40;1.00;;;;;;4964640;28;20187;-63
2023/07/11 06:06:42;;;;;;;5.20;2.60;;;21.60;1.00;;;;;;4940973;29;20202;-64
2023/07/11 06:09:13;;;;;;;2.90;2.70;;;21.60;1.00;;;;;;4960806;28;20192;-63
2023/07/11 06:11:43;;;;;;;6.97;2.80;;;22.00;1.00;;;;;;4956283;28;20220;-63
2023/07/11 06:14:13;;;;;;;7.50;2.73;;;22.10;1.00;;;;;;4959021;28;20198;-63
2023/07/11 06:16:43;;;;;;;8.10;3.00;;;22.30;1.00;;;;;;4953243;28;20313;-64
2023/07/11 06:19:12;;;;;;;6.53;2.93;;;22.60;1.00;;;;;;4968645;28;20623;-63
2023/07/11 06:21:41;;;;;;;5.83;2.47;;;22.70;99.90;;;;;;4961852;28;20549;-64
2023/07/11 06:24:10;;;;;;;9.53;2.50;;;22.80;99.90;;;;;;4962142;28;20201;-63
2023/07/11 06:26:38;;;;;;;7.80;2.60;;;23.00;99.90;;;;;;4956040;28;20194;-63
2023/07/11 06:29:06;;;;;;;3.60;2.60;;;22.80;99.90;;;;;;4965736;28;20191;-63
2023/07/11 06:31:36;;;;;;;5.30;3.00;;;22.90;99.90;;;;;;4962258;28;20200;-63
2023/07/11 06:34:05;;;;;;;3.10;2.63;;;23.10;99.90;;;;;;4938602;28;20871;-64
2023/07/11 06:36:33;;;;;;;4.80;2.60;;;23.30;99.90;;;;;;4967649;28;20283;-63
2023/07/11 06:39:01;;;;;;;5.53;2.70;;;23.40;99.90;;;;;;4956110;28;20702;-63
2023/07/11 06:41:29;;;;;;;6.37;2.20;;;23.70;99.90;;;;;;4936862;28;20200;-64
2023/07/11 06:43:58;;;;;;;6.67;2.47;;;23.90;99.90;;;;;;4959250;28;20207;-63
2023/07/11 06:46:26;;;;;;;7.13;2.80;;;24.20;19.00;;;;;;4956716;28;20643;-64
2023/07/11 06:48:59;;;;;;;5.53;2.57;;;24.40;1.00;;;;;;4963749;28;20705;-63
2023/07/11 06:51:28;;;;;;;4.03;2.50;;;24.50;1.00;;;;;;4962109;28;20647;-63
2023/07/11 06:53:57;;;;;;;6.87;2.70;;;24.40;1.00;;;;;;4943117;28;20233;-63
2023/07/11 06:56:25;;;;;;;6.90;2.53;;;24.50;1.00;;;;;;4960222;28;20204;-63
2023/07/11 06:58:55;;;;;;;7.10;2.47;;;24.70;1.00;;;;;;4959429;28;20867;-63
2023/07/11 07:01:23;;;;;;;6.80;2.73;;;25.00;1.00;;;;;;4960125;28;20256;-64
2023/07/11 07:04:05;;;;;;;4.73;2.43;;;25.20;1.00;;;;;;4958034;28;20206;-64
2023/07/11 07:06:35;;;;;;;4.07;2.50;;;25.30;99.90;;;;;;4957839;28;20578;-64
2023/07/11 07:09:04;;;;;;;10.60;2.15;;;25.50;1.00;;;;;;4961807;28;20279;-63
2023/07/11 07:11:35;;;;;;;3.10;2.25;;;25.70;99.90;;;;;;4962124;28;20277;-64
2023/07/11 07:14:08;;;;;;;4.13;2.28;;;25.90;99.90;;;;;;4968317;28;20198;-64
2023/07/11 07:16:38;;;;;;;5.43;2.40;;;26.30;99.90;;;;;;4967761;28;20251;-64
2023/07/11 07:19:10;;;;;;;2.70;2.03;;;26.30;99.90;;;;;;4961784;28;20207;-64
2023/07/11 07:21:38;;;;;;;3.45;2.40;;;26.60;1.00;;;;;;4962657;28;20237;-63
2023/07/11 07:24:08;;;;;;;4.38;2.40;;;26.80;1.00;;;;;;4967928;28;20191;-65
2023/07/11 07:26:36;;;;;;;4.03;2.30;;;27.40;99.90;;;;;;4972642;28;20205;-64
2023/07/11 07:29:04;;;;;;;5.95;2.63;;;27.60;3.90;;;;;;4966355;28;20225;-64
2023/07/11 07:31:33;;;;;;;3.90;2.20;;;27.50;99.90;;;;;;4965761;28;20207;-64
2023/07/11 07:34:01;;;;;;;3.13;2.00;;;27.40;99.90;;;;;;4971561;28;20195;-63
2023/07/11 07:36:31;;;;;;;4.32;2.40;;;27.50;99.90;;;;;;4963503;28;20200;-65
2023/07/11 07:38:59;;;;;;;4.30;2.53;;;27.60;1.00;;;;;;4956234;28;20191;-63
2023/07/11 07:41:27;;;;;;;4.07;2.40;;;27.70;99.90;;;;;;4955805;28;20301;-64
2023/07/11 07:43:56;;;;;;;6.65;2.50;;;28.30;99.90;;;;;;4962980;28;20194;-63
2023/07/11 07:46:24;;;;;;;3.55;2.38;;;28.80;99.90;;;;;;4957170;28;20202;-63
2023/07/11 07:48:52;;;;;;;5.15;2.20;;;28.70;86.40;;;;;;4956582;28;20296;-63
2023/07/11 07:51:21;;;;;;;5.10;2.42;;;28.70;99.90;;;;;;4958871;28;20211;-64
2023/07/11 07:53:51;;;;;;;3.63;2.50;;;28.50;1.00;;;;;;4961801;28;21149;-63
2023/07/11 07:56:22;;;;;;;4.32;2.35;;;27.80;1.00;;;;;;4957957;28;20210;-63
2023/07/11 07:58:51;;;;;;;2.97;2.50;;;27.20;99.90;;;;;;4955638;28;20185;-62
2023/07/11 08:01:20;;;;;;;5.80;2.20;;;27.10;1.00;;;;;;4948662;28;20207;-63
2023/07/11 08:03:50;;;;;;;10.27;2.30;;;27.70;99.90;;;;;;4962069;28;20211;-63
2023/07/11 08:06:19;;;;;;;3.88;2.10;;;28.70;17.70;;;;;;4958468;28;20738;-63
2023/07/11 08:08:49;;;;;;;2.10;2.00;;;29.60;1.00;;;;;;4953945;28;20219;-63
2023/07/11 08:11:21;;;;;;;2.67;2.00;;;30.20;1.00;;;;;;4952592;28;20243;-63
2023/07/11 08:13:49;;;;;;;4.40;2.25;;;30.80;99.90;;;;;;4948704;28;20211;-63
2023/07/11 08:16:28;;;;;;;5.00;2.42;;;31.30;1.00;;;;;;4953020;28;20235;-63
2023/07/11 08:19:04;;;;;;;4.00;2.08;;;31.80;91.20;;;;;;4957349;28;20180;-64
2023/07/11 08:21:34;;;;;;;4.75;2.03;;;31.90;1.00;;;;;;4958591;28;20203;-65
2023/07/11 08:24:04;;;;;;;3.63;2.20;;;31.80;1.00;;;;;;4961084;28;20284;-64
2023/07/11 08:26:34;;;;;;;2.65;2.30;;;31.30;99.90;;;;;;4959477;28;20230;-65
2023/07/11 08:29:03;;;;;;;6.45;2.40;;;31.20;1.00;;;;;;4957502;28;20267;-64
2023/07/11 08:31:51;;;;;;;2.00;1.90;;;31.50;99.90;;;;;;4955569;28;20192;-65
2023/07/11 08:34:20;;;;;;;2.10;1.83;;;31.70;1.00;;;;;;4956645;28;20802;-65
2023/07/11 08:36:48;;;;;;;3.47;2.50;;;31.50;99.90;;;;;;4960616;28;20206;-65
2023/07/11 08:39:16;;;;;;;2.33;2.13;;;31.60;59.70;;;;;;4952060;28;20608;-65
2023/07/11 08:41:48;;;;;;;3.40;1.85;;;31.70;1.00;;;;;;4952897;28;20216;-64
2023/07/11 08:44:19;;;;;;;2.60;2.40;;;32.10;1.00;;;;;;4950321;28;20203;-64
2023/07/11 08:46:52;;;;;;;3.15;2.05;;;32.30;1.00;;;;;;4955367;28;20666;-65
2023/07/11 08:49:29;;;;;;;3.58;2.10;;;32.60;99.90;;;;;;4948779;28;20211;-65
2023/07/11 08:52:02;;;;;;;2.28;1.95;;;32.50;1.00;;;;;;4952910;28;20215;-65
2023/07/11 08:54:34;;;;;;;4.15;2.30;;;32.90;1.00;;;;;;4957827;28;20555;-65
2023/07/11 08:57:04;;;;;;;3.83;2.00;;;33.20;99.90;;;;;;4965900;28;20219;-65
2023/07/11 08:59:44;;;;;;;3.03;2.13;;;33.00;99.90;;;;;;4958155;28;20196;-65
2023/07/11 09:02:33;;;;;;;5.55;2.20;;;33.20;99.90;;;;;;4968825;28;20191;-65
2023/07/11 09:05:04;;;;;;;5.35;2.30;;;33.80;99.90;;;;;;4968772;28;20244;-65
2023/07/11 09:07:37;;;;;;;3.53;2.20;;;33.90;1.00;;;;;;4963636;28;20307;-65
2023/07/11 09:10:25;;;;;;;2.53;2.22;;;33.80;1.00;;;;;;4957485;28;20540;-64
2023/07/11 09:13:28;;;;;;;4.57;2.00;;;33.60;1.00;;;;;;4956853;28;20203;-65
2023/07/11 09:16:07;;;;;;;2.95;2.20;;;33.40;1.00;;;;;;4955009;28;20199;-65
2023/07/11 09:18:45;;;;;;;6.57;2.50;;;33.20;56.70;;;;;;4957062;28;20207;-65
2023/07/11 09:21:18;;;;;;;9.10;2.40;;;33.20;1.00;;;;;;4958259;28;20196;-65
2023/07/11 09:23:54;;;;;;;7.25;2.47;;;32.90;1.00;;;;;;4954704;28;20198;-65
2023/07/11 09:26:41;;;;;;;4.90;2.00;;;33.40;13.70;;;;;;4968982;28;20559;-65
2023/07/11 09:29:11;;;;;;;2.83;2.22;;;33.70;1.00;;;;;;4963600;28;20204;-64
2023/07/11 09:31:42;;;;;;;3.67;2.13;;;34.00;1.00;;;;;;4958903;28;20199;-64
2023/07/11 09:34:20;;;;;;;4.97;2.30;;;33.80;1.00;;;;;;4955787;28;20251;-64
2023/07/11 09:36:51;;;;;;;3.40;1.90;;;33.40;1.00;;;;;;4950453;28;20290;-64
2023/07/11 09:39:29;;;;;;;5.78;2.00;;;33.10;1.00;;;;;;4957016;28;20186;-64
2023/07/11 09:42:03;;;;;;;3.72;2.10;;;32.50;1.00;;;;;;4958340;28;20676;-64
2023/07/11 09:44:33;;;;;;;4.30;2.30;;;32.80;1.00;;;;;;4959826;28;20560;-64
2023/07/11 09:47:15;;;;;;;3.63;2.05;;;33.20;1.00;;;;;;4955101;28;20290;-64
2023/07/11 09:49:49;;;;;;;2.47;2.00;;;33.30;1.00;;;;;;4944765;28;20219;-64
2023/07/11 09:52:26;;;;;;;3.58;2.33;;;33.30;1.00;;;;;;4956581;28;20196;-64
2023/07/11 09:54:56;;;;;;;4.80;2.15;;;33.20;1.00;;;;;;4966744;28;20248;-64
2023/07/11 09:57:36;;;;;;;4.25;1.90;;;33.30;1.00;;;;;;4962068;28;20203;-65
2023/07/11 10:00:09;;;;;;;3.00;2.25;;;33.70;1.00;;;;;;4954647;28;20191;-64
2023/07/11 10:02:50;;;;;;;6.28;2.45;;;33.30;1.00;;;;;;4951833;28;20265;-64
2023/07/11 10:05:22;;;;;;;3.72;2.20;;;33.10;1.00;;;;;;4966321;28;20681;-64
2023/07/11 10:08:00;;;;;;;1.85;1.73;;;33.10;1.00;;;;;;4955648;28;20287;-64
2023/07/11 10:10:29;;;;;;;5.28;2.40;;;33.10;1.00;;;;;;4942674;28;20216;-64
2023/07/11 10:13:09;;;;;;;4.32;2.35;;;33.20;1.00;;;;;;4957336;28;20200;-64
2023/07/11 10:15:57;;;;;;;3.20;2.20;;;32.80;1.00;;;;;;4963990;28;20198;-64
2023/07/11 10:18:28;;;;;;;2.50;2.33;;;33.20;1.00;;;;;;4970339;28;20301;-64
2023/07/11 10:20:59;;;;;;;4.10;2.25;;;33.00;1.00;;;;;;4969578;28;20201;-64
2023/07/11 10:23:28;;;;;;;6.35;2.20;;;33.10;1.00;;;;;;4958968;28;20207;-64
2023/07/11 10:26:16;;;;;;;4.32;1.90;;;33.30;1.00;;;;;;4959216;28;20194;-64
2023/07/11 10:28:46;;;;;;;3.50;2.20;;;33.50;1.00;;;;;;4960531;28;20546;-64
2023/07/11 10:31:21;;;;;;;7.63;3.05;;;34.00;1.00;;;;;;4959391;28;20291;-64
2023/07/11 10:33:54;;;;;;;2.47;2.28;;;33.90;1.00;;;;;;4960022;28;20196;-64
2023/07/11 10:36:33;;;;;;;5.88;2.22;;;33.80;1.00;;;;;;4967202;28;20863;-64
2023/07/11 10:39:05;;;;;;;6.25;2.50;;;33.60;1.00;;;;;;4961094;28;20216;-64
2023/07/11 10:41:38;;;;;;;3.15;2.70;;;34.20;1.00;;;;;;4955069;28;20335;-64
2023/07/11 10:44:15;;;;;;;5.72;2.22;;;33.70;1.00;;;;;;4961384;28;20191;-64
2023/07/11 10:46:48;;;;;;;3.92;2.22;;;33.70;1.00;;;;;;4969075;28;20654;-64
2023/07/11 10:49:21;;;;;;;2.78;2.25;;;33.70;1.00;;;;;;4973467;28;20238;-64
2023/07/11 10:51:57;;;;;;;2.60;2.20;;;33.60;1.00;;;;;;4970475;28;20198;-64
2023/07/11 10:54:37;;;;;;;2.70;2.00;;;33.80;99.90;;;;;;4941893;29;20237;-64
2023/07/11 10:57:12;;;;;;;3.90;2.42;;;33.40;99.90;;;;;;4959958;28;20542;-64
2023/07/11 10:59:41;;;;;;;2.33;2.10;;;33.10;1.00;;;;;;4969072;28;20200;-64
2023/07/11 11:02:16;;;;;;;3.10;2.35;;;33.40;1.00;;;;;;4956298;28;20195;-64
2023/07/11 11:05:07;;;;;;;2.22;2.08;;;33.70;1.00;;;;;;4957734;28;20667;-64
2023/07/11 11:07:39;;;;;;;5.68;2.42;;;33.70;1.00;;;;;;4959797;28;20217;-64
2023/07/11 11:10:14;;;;;;;7.18;2.25;;;33.30;1.00;;;;;;4955200;28;20243;-64
2023/07/11 11:12:48;;;;;;;3.38;2.60;;;32.70;1.00;;;;;;4962840;28;20335;-64
2023/07/11 11:15:34;;;;;;;3.28;2.25;;;33.00;1.00;;;;;;4967658;28;20195;-64
2023/07/11 11:18:20;;;;;;;2.40;2.30;;;33.00;1.00;;;;;;4961150;28;20545;-64
2023/07/11 11:21:00;;;;;;;2.88;2.50;;;33.10;1.00;;;;;;4957391;28;20200;-64
2023/07/11 11:24:02;;;;;;;3.60;2.30;;;33.30;1.00;;;;;;4963126;28;20577;-64
2023/07/11 11:26:36;;;;;;;2.80;1.92;;;33.30;1.00;;;;;;4967760;28;20191;-65
2023/07/11 11:29:17;;;;;;;2.58;2.38;;;33.20;1.00;;;;;;4957778;28;20204;-64
2023/07/11 11:31:52;;;;;;;3.72;2.25;;;33.40;1.00;;;;;;4958267;28;20196;-64
2023/07/11 11:34:38;;;;;;;2.30;2.20;;;33.00;1.00;;;;;;4958466;28;20211;-64
2023/07/11 11:37:19;;;;;;;3.88;2.20;;;32.40;1.00;;;;;;4949185;28;20204;-67
2023/07/11 11:39:56;;;;;;;4.50;2.30;;;32.10;1.00;;;;;;4968668;28;20209;-64
2023/07/11 11:42:30;;;;;;;4.10;2.08;;;32.40;1.00;;;;;;4965903;28;20230;-63
2023/07/11 11:45:02;;;;;;;3.40;2.33;;;32.10;1.00;;;;;;4954340;28;20235;-64
2023/07/11 11:47:35;;;;;;;2.20;2.10;;;31.90;1.00;;;;;;4968401;28;20195;-64
2023/07/11 11:50:27;;;;;;;4.40;2.40;;;32.40;1.00;;;;;;4971146;28;20216;-64
2023/07/11 11:53:17;;;;;;;2.10;1.98;;;32.50;1.00;;;;;;4961894;28;20196;-64
2023/07/11 11:55:51;;;;;;;7.75;2.38;;;32.50;1.00;;;;;;4962187;28;20228;-64
2023/07/11 11:58:38;;;;;;;2.30;2.20;;;32.40;1.00;;;;;;4965597;28;20184;-64
2023/07/11 12:01:06;;;;;;;2.35;2.20;;;32.30;1.00;;;;;;4951532;28;20546;-64
2023/07/11 12:03:46;;;;;;;2.30;2.10;;;32.50;1.00;;;;;;4970961;28;20864;-64
2023/07/11 12:06:28;;;;;;;2.40;2.20;;;32.60;1.00;;;;;;4962256;28;20226;-64
2023/07/11 12:09:37;;;;;;;2.25;2.10;;;32.40;1.00;;;;;;4955066;28;20214;-64
2023/07/11 12:12:09;;;;;;;2.45;2.25;;;32.40;1.00;;;;;;4942667;28;20215;-64
2023/07/11 12:14:43;;;;;;;2.35;2.20;;;32.20;1.00;;;;;;4960879;28;20779;-64
2023/07/11 12:17:44;;;;;;;4.00;2.65;;;32.20;1.00;;;;;;4971148;28;20195;-64
2023/07/11 12:20:15;;;;;;;2.90;2.15;;;32.00;99.90;;;;;;4958924;28;20227;-64
2023/07/11 12:23:18;;;;;;;1.95;1.90;;;32.10;99.90;;;;;;4971548;28;20631;-64
2023/07/11 12:26:11;;;;;;;4.03;2.30;;;31.90;99.90;;;;;;4956827;28;20206;-64
2023/07/11 12:28:41;;;;;;;2.35;2.15;;;31.50;99.90;;;;;;4943864;29;20281;-64
2023/07/11 12:31:19;;;;;;;3.80;2.30;;;31.20;99.90;;;;;;4967460;28;20298;-64
2023/07/11 12:34:01;;;;;;;5.75;2.15;;;31.00;99.90;;;;;;4960247;28;20205;-63
2023/07/11 12:36:49;;;;;;;2.15;2.05;;;30.80;1.00;;;;;;4953037;28;20642;-64
2023/07/11 12:39:39;;;;;;;6.03;2.20;;;30.70;1.00;;;;;;4946333;28;20736;-64
2023/07/11 12:42:19;;;;;;;2.25;1.67;;;31.00;99.90;;;;;;4970872;28;20221;-64
2023/07/11 12:44:47;;;;;;;2.42;2.22;;;31.30;1.00;;;;;;4964683;28;20193;-64
2023/07/11 12:47:20;;;;;;;1.90;1.80;;;31.50;1.00;;;;;;4967632;28;20197;-65
2023/07/11 12:49:50;;;;;;;4.00;2.05;;;31.70;1.00;;;;;;4963095;28;20193;-63
2023/07/11 12:52:21;;;;;;;2.40;2.20;;;31.70;1.00;;;;;;4968790;28;20678;-63
2023/07/11 12:54:51;;;;;;;2.53;2.08;;;31.50;1.00;;;;;;4966999;28;20236;-64
2023/07/11 12:57:23;;;;;;;3.78;2.00;;;31.50;1.00;;;;;;4947025;29;20202;-64
2023/07/11 12:59:51;;;;;;;3.17;2.10;;;31.30;1.00;;;;;;4953849;28;20204;-64
2023/07/11 13:02:31;;;;;;;3.20;1.90;;;31.10;1.00;;;;;;4961760;28;20280;-63
2023/07/11 13:05:00;;;;;;;2.03;1.77;;;31.20;1.00;;;;;;4961235;28;20602;-63
2023/07/11 13:07:32;;;;;;;3.58;2.40;;;31.10;1.00;;;;;;4964936;28;20199;-63
2023/07/11 13:10:03;;;;;;;7.22;2.38;;;30.90;1.00;;;;;;4965842;28;20233;-63
2023/07/11 13:12:34;;;;;;;2.78;2.00;;;31.10;1.00;;;;;;4969906;28;20246;-64
2023/07/11 13:15:11;;;;;;;4.43;2.22;;;31.20;1.00;;;;;;4962525;28;20195;-64